sensor_id;sensor_type;location;lat;lon;timestamp;pressure;altitude;pressure_sealevel;temperature
38249;BMP280;24045;51.138;17.126;2023-03-31T00:12:09;99426.17;;;10.13
38249;BMP280;24045;51.138;17.126;2023-03-31T00:27:12;99415.89;;;10.01
38249;BMP280;24045;51.138;17.126;2023-03-31T00:42:15;99410.39;;;9.69
38249;BMP280;24045;51.138;17.126;2023-03-31T00:57:17;99405.71;;;9.19
38249;BMP280;24045;51.138;17.126;2023-03-31T01:12:21;99400.36;;;8.75
38249;BMP280;24045;51.138;17.126;2023-03-31T01:43:09;99367.18;;;7.78
38249;BMP280;24045;51.138;17.126;2023-03-31T01:58:19;99352.58;;;7.37
38249;BMP280;24045;51.138;17.126;2023-03-31T02:13:26;99347.05;;;7.03
38249;BMP280;24045;51.138;17.126;2023-03-31T02:28:30;99339.09;;;6.83
38249;BMP280;24045;51.138;17.126;2023-03-31T02:43:32;99327.62;;;6.73
38249;BMP280;24045;51.138;17.126;2023-03-31T03:14:14;99302.15;;;6.77
38249;BMP280;24045;51.138;17.126;2023-03-31T03:29:18;99293.00;;;6.85
38249;BMP280;24045;51.138;17.126;2023-03-31T03:44:21;99287.58;;;6.79
38249;BMP280;24045;51.138;17.126;2023-03-31T03:59:23;99275.86;;;6.70
38249;BMP280;24045;51.138;17.126;2023-03-31T04:14:26;99269.08;;;6.54
38249;BMP280;24045;51.138;17.126;2023-03-31T04:29:28;99262.25;;;6.18
38249;BMP280;24045;51.138;17.126;2023-03-31T04:44:35;99253.02;;;6.01
38249;BMP280;24045;51.138;17.126;2023-03-31T04:59:38;99240.96;;;5.75
38249;BMP280;24045;51.138;17.126;2023-03-31T05:14:45;99211.75;;;6.16
38249;BMP280;24045;51.138;17.126;2023-03-31T05:29:48;99215.56;;;7.82
38249;BMP280;24045;51.138;17.126;2023-03-31T05:44:51;99218.15;;;9.43
38249;BMP280;24045;51.138;17.126;2023-03-31T05:59:54;99204.21;;;12.81
38249;BMP280;24045;51.138;17.126;2023-03-31T06:14:56;99194.61;;;15.00
38249;BMP280;24045;51.138;17.126;2023-03-31T06:29:59;99185.33;;;16.47
38249;BMP280;24045;51.138;17.126;2023-03-31T06:45:02;99163.78;;;15.88
38249;BMP280;24045;51.138;17.126;2023-03-31T07:00:05;99162.26;;;14.28
38249;BMP280;24045;51.138;17.126;2023-03-31T07:15:09;99152.13;;;15.66
38249;BMP280;24045;51.138;17.126;2023-03-31T07:30:15;99149.14;;;17.84
38249;BMP280;24045;51.138;17.126;2023-03-31T07:45:19;99125.48;;;15.92
38249;BMP280;24045;51.138;17.126;2023-03-31T08:00:23;99106.58;;;15.07
38249;BMP280;24045;51.138;17.126;2023-03-31T08:15:26;99086.42;;;14.28
38249;BMP280;24045;51.138;17.126;2023-03-31T08:30:29;99074.88;;;17.79
38249;BMP280;24045;51.138;17.126;2023-03-31T08:45:34;99063.77;;;19.47
38249;BMP280;24045;51.138;17.126;2023-03-31T09:00:48;99030.52;;;19.11
38249;BMP280;24045;51.138;17.126;2023-03-31T09:16:11;99020.20;;;19.00
38249;BMP280;24045;51.138;17.126;2023-03-31T09:31:19;98999.15;;;18.82
38249;BMP280;24045;51.138;17.126;2023-03-31T09:46:29;98976.52;;;20.00
38249;BMP280;24045;51.138;17.126;2023-03-31T10:01:34;98961.40;;;19.63
38249;BMP280;24045;51.138;17.126;2023-03-31T10:16:56;98931.37;;;18.43
38249;BMP280;24045;51.138;17.126;2023-03-31T10:32:16;98919.92;;;17.03
38249;BMP280;24045;51.138;17.126;2023-03-31T10:47:20;98900.50;;;16.63
38249;BMP280;24045;51.138;17.126;2023-03-31T11:17:51;98858.61;;;16.64
38249;BMP280;24045;51.138;17.126;2023-03-31T11:48:30;98794.73;;;19.28
38249;BMP280;24045;51.138;17.126;2023-03-31T12:04:20;98764.64;;;19.26
38249;BMP280;24045;51.138;17.126;2023-03-31T12:19:34;98749.56;;;18.22
38249;BMP280;24045;51.138;17.126;2023-03-31T12:34:44;98726.80;;;18.03
38249;BMP280;24045;51.138;17.126;2023-03-31T12:50:09;98702.77;;;17.09
38249;BMP280;24045;51.138;17.126;2023-03-31T13:20:39;98660.23;;;17.21
38249;BMP280;24045;51.138;17.126;2023-03-31T13:35:47;98650.29;;;16.32
38249;BMP280;24045;51.138;17.126;2023-03-31T13:51:18;98634.38;;;15.41
38249;BMP280;24045;51.138;17.126;2023-03-31T14:06:32;98611.04;;;14.62
38249;BMP280;24045;51.138;17.126;2023-03-31T14:21:40;98580.68;;;14.41
38249;BMP280;24045;51.138;17.126;2023-03-31T14:37:05;98555.59;;;14.15
38249;BMP280;24045;51.138;17.126;2023-03-31T14:52:16;98531.41;;;13.64
38249;BMP280;24045;51.138;17.126;2023-03-31T15:07:19;98511.88;;;13.47
38249;BMP280;24045;51.138;17.126;2023-03-31T15:22:23;98492.08;;;13.31
38249;BMP280;24045;51.138;17.126;2023-03-31T15:37:30;98482.98;;;13.61
38249;BMP280;24045;51.138;17.126;2023-03-31T15:52:44;98478.88;;;13.44
38249;BMP280;24045;51.138;17.126;2023-03-31T16:07:48;98460.58;;;13.33
38249;BMP280;24045;51.138;17.126;2023-03-31T16:22:55;98460.92;;;13.03
38249;BMP280;24045;51.138;17.126;2023-03-31T16:38:00;98456.52;;;12.70
38249;BMP280;24045;51.138;17.126;2023-03-31T16:53:05;98446.70;;;12.36
38249;BMP280;24045;51.138;17.126;2023-03-31T17:08:09;98411.03;;;12.27
38249;BMP280;24045;51.138;17.126;2023-03-31T17:23:11;98405.60;;;12.20
38249;BMP280;24045;51.138;17.126;2023-03-31T17:38:15;98403.63;;;11.91
38249;BMP280;24045;51.138;17.126;2023-03-31T17:53:21;98393.84;;;11.57
38249;BMP280;24045;51.138;17.126;2023-03-31T18:08:23;98391.00;;;11.36
38249;BMP280;24045;51.138;17.126;2023-03-31T18:23:26;98406.44;;;11.21
38249;BMP280;24045;51.138;17.126;2023-03-31T18:38:29;98400.86;;;11.10
38249;BMP280;24045;51.138;17.126;2023-03-31T18:53:32;98396.59;;;11.16
38249;BMP280;24045;51.138;17.126;2023-03-31T19:08:36;98396.75;;;11.21
38249;BMP280;24045;51.138;17.126;2023-03-31T19:23:39;98395.35;;;11.00
38249;BMP280;24045;51.138;17.126;2023-03-31T19:38:42;98409.20;;;10.82
38249;BMP280;24045;51.138;17.126;2023-03-31T19:53:45;98410.43;;;10.63
38249;BMP280;24045;51.138;17.126;2023-03-31T20:08:50;98409.59;;;10.35
38249;BMP280;24045;51.138;17.126;2023-03-31T20:23:54;98429.48;;;10.02
38249;BMP280;24045;51.138;17.126;2023-03-31T20:38:58;98418.41;;;9.69
38249;BMP280;24045;51.138;17.126;2023-03-31T20:54:03;98430.04;;;9.55
38249;BMP280;24045;51.138;17.126;2023-03-31T21:09:07;98462.50;;;10.16
38249;BMP280;24045;51.138;17.126;2023-03-31T21:24:10;98475.15;;;10.19
38249;BMP280;24045;51.138;17.126;2023-03-31T21:39:13;98466.58;;;9.94
38249;BMP280;24045;51.138;17.126;2023-03-31T21:54:16;98450.14;;;9.72
38249;BMP280;24045;51.138;17.126;2023-03-31T22:09:19;98460.70;;;9.61
38249;BMP280;24045;51.138;17.126;2023-03-31T22:24:22;98458.44;;;9.43
38249;BMP280;24045;51.138;17.126;2023-03-31T22:39:25;98470.17;;;9.25
38249;BMP280;24045;51.138;17.126;2023-03-31T22:54:28;98469.13;;;9.07
38249;BMP280;24045;51.138;17.126;2023-03-31T23:09:30;98470.04;;;8.95
38249;BMP280;24045;51.138;17.126;2023-03-31T23:24:33;98472.83;;;8.88
38249;BMP280;24045;51.138;17.126;2023-03-31T23:39:36;98460.95;;;8.79
38249;BMP280;24045;51.138;17.126;2023-03-31T23:54:40;98440.60;;;8.95
